Aurora, Colorado
Current Conditions -  °F | °C
As of 4:58 AM on Tuesday 27 Jan 2015 (Local Time) from KBKF Reporting Station
Clear Clear  
Wind Chill:   Ceiling: Unl
Heat Index:   Visibility: 10mi
Dew Point: -6°   Wind: 14mph
Humidity: 41%   Direction: 190°S
Pressure: 30.18"   Gusts: NA
Location:  39.69°N, 104.86°W
Report Text: KBKF 271158Z 19012KT 10SM CLR 07/M06 A3018 RMK AO2A SLP183 T00661058 10086 20057 57008
Loading
Personal Weather Stations






























Interactive Weather Map New forecast layout! Learn more

10-Day Weather Forecast

Advertisements
Track Severe Weather on mobile